createdAt,value
2018-06-20T00:02:45.570Z,15.81
2018-06-20T00:07:47.699Z,15.72
2018-06-20T00:12:49.834Z,15.78
2018-06-20T00:17:51.981Z,15.72
2018-06-20T00:22:54.207Z,15.60
2018-06-20T00:27:56.343Z,15.56
2018-06-20T00:32:58.444Z,15.65
2018-06-20T00:38:00.570Z,15.55
2018-06-20T00:43:02.730Z,15.59
2018-06-20T00:48:04.906Z,15.56
2018-06-20T00:53:07.034Z,15.65
2018-06-20T00:58:09.164Z,15.50
2018-06-20T01:03:11.307Z,15.36
2018-06-20T01:08:13.433Z,15.34
2018-06-20T01:13:15.564Z,15.36
2018-06-20T01:18:17.685Z,15.27
2018-06-20T01:23:19.845Z,15.32
2018-06-20T01:28:22.135Z,15.15
2018-06-20T01:33:24.274Z,14.87
2018-06-20T01:38:26.396Z,14.70
2018-06-20T01:43:28.541Z,14.82
2018-06-20T01:48:30.725Z,14.96
2018-06-20T01:53:32.818Z,14.95
2018-06-20T01:58:34.930Z,15.06
2018-06-20T02:03:37.073Z,14.77
2018-06-20T02:08:39.227Z,14.83
2018-06-20T02:13:41.365Z,14.71
2018-06-20T02:18:43.499Z,14.73
2018-06-20T02:23:45.854Z,14.88
2018-06-20T02:28:47.960Z,15.00
2018-06-20T02:33:50.094Z,14.90
2018-06-20T02:38:52.228Z,14.91
2018-06-20T02:43:54.368Z,14.87
2018-06-20T02:48:56.552Z,14.93
2018-06-20T02:53:58.682Z,14.94
2018-06-20T02:59:00.844Z,14.92
2018-06-20T03:04:04.354Z,14.94
2018-06-20T03:09:13.332Z,14.98
2018-06-20T03:14:15.582Z,14.98
2018-06-20T03:19:17.719Z,15.04
2018-06-20T03:24:19.832Z,15.06
2018-06-20T03:29:21.930Z,15.15
2018-06-20T03:34:24.081Z,15.21
2018-06-20T03:39:26.219Z,15.23
2018-06-20T03:44:28.331Z,15.37
2018-06-20T03:49:30.452Z,15.30
2018-06-20T03:54:32.594Z,15.39
2018-06-20T03:59:34.722Z,15.52
2018-06-20T04:04:36.834Z,15.54
2018-06-20T04:09:38.938Z,15.56
2018-06-20T04:14:41.080Z,15.68
2018-06-20T04:19:43.199Z,15.66
2018-06-20T04:24:45.314Z,15.71
2018-06-20T04:29:47.428Z,15.70
2018-06-20T04:34:49.563Z,15.81
2018-06-20T04:39:51.679Z,15.94
2018-06-20T04:44:53.806Z,15.95
2018-06-20T04:49:55.950Z,15.95
2018-06-20T04:54:58.098Z,15.92
2018-06-20T05:00:00.223Z,16.22
2018-06-20T05:05:02.382Z,16.25
2018-06-20T05:10:04.538Z,16.45
2018-06-20T05:15:06.716Z,16.40
2018-06-20T05:20:08.849Z,16.48
2018-06-20T05:25:11.004Z,16.47
2018-06-20T05:30:13.202Z,16.54
2018-06-20T05:35:15.368Z,16.58
2018-06-20T05:40:17.802Z,16.62
2018-06-20T05:45:19.960Z,16.65
2018-06-20T05:50:22.128Z,16.91
2018-06-20T05:55:24.255Z,16.92
2018-06-20T06:00:26.405Z,16.96
2018-06-20T06:05:28.560Z,17.18
2018-06-20T06:10:30.690Z,17.25
2018-06-20T06:15:32.858Z,17.32
2018-06-20T06:20:34.970Z,17.45
2018-06-20T06:25:37.089Z,17.58
2018-06-20T06:30:39.324Z,17.78
2018-06-20T06:35:41.415Z,17.82
2018-06-20T06:40:43.580Z,18.07
2018-06-20T06:45:45.692Z,18.22
2018-06-20T06:50:47.869Z,18.24
2018-06-20T06:55:50.034Z,18.38
2018-06-20T07:00:52.184Z,18.64
2018-06-20T07:05:54.360Z,18.82
2018-06-20T07:10:56.791Z,18.80
2018-06-20T07:15:58.955Z,18.77
2018-06-20T07:21:01.130Z,19.00
2018-06-20T07:26:03.271Z,19.24
2018-06-20T07:31:05.414Z,19.35
2018-06-20T07:36:08.435Z,19.72
2018-06-20T07:41:10.546Z,19.94
2018-06-20T07:46:12.722Z,20.08
2018-06-20T07:51:14.948Z,20.27
2018-06-20T07:56:17.128Z,20.40
2018-06-20T08:01:36.535Z,20.55
2018-06-20T08:06:44.377Z,20.81
2018-06-20T08:11:52.375Z,20.99
2018-06-20T08:17:00.484Z,21.00
2018-06-20T08:22:02.652Z,20.91
2018-06-20T08:27:04.856Z,20.91
2018-06-20T08:32:06.987Z,21.06
2018-06-20T08:37:09.124Z,21.42
2018-06-20T08:42:11.297Z,21.61
2018-06-20T08:47:13.444Z,21.76
2018-06-20T08:52:15.624Z,21.70
2018-06-20T08:57:17.808Z,21.92
2018-06-20T09:02:20.270Z,21.97
2018-06-20T09:07:28.008Z,22.16
2018-06-20T09:12:35.924Z,22.28
2018-06-20T09:17:43.907Z,22.32
2018-06-20T09:22:46.053Z,22.48
2018-06-20T09:27:48.209Z,22.70
2018-06-20T09:32:50.345Z,22.67
2018-06-20T09:37:52.474Z,22.98
2018-06-20T09:42:54.740Z,23.19
2018-06-20T09:47:56.899Z,23.08
2018-06-20T09:52:59.126Z,22.94
2018-06-20T09:58:02.198Z,22.95
2018-06-20T10:03:09.843Z,23.10
2018-06-20T10:08:17.823Z,23.52
2018-06-20T10:13:23.636Z,23.64
2018-06-20T10:18:25.799Z,23.62
2018-06-20T10:23:27.971Z,23.84
2018-06-20T10:28:30.202Z,24.03
2018-06-20T10:33:32.295Z,24.24
2018-06-20T10:38:34.467Z,24.25
2018-06-20T10:43:36.656Z,24.46
2018-06-20T10:48:38.792Z,24.62
2018-06-20T10:53:40.979Z,24.22
2018-06-20T10:58:48.929Z,23.84
2018-06-20T11:03:56.831Z,23.65
2018-06-20T11:09:04.705Z,23.49
2018-06-20T11:14:07.450Z,23.55
2018-06-20T11:19:09.654Z,23.63
2018-06-20T11:24:11.832Z,23.94
2018-06-20T11:29:14.082Z,24.17
2018-06-20T11:34:16.226Z,23.89
2018-06-20T11:39:18.389Z,23.95
2018-06-20T11:44:20.563Z,24.33
2018-06-20T11:49:22.821Z,23.80
2018-06-20T11:54:24.987Z,23.58
2018-06-20T11:59:34.632Z,23.81
2018-06-20T12:04:42.582Z,23.88
2018-06-20T12:09:50.475Z,24.53
2018-06-20T12:14:58.432Z,25.71
2018-06-20T12:20:06.465Z,25.32
2018-06-20T12:25:14.456Z,24.95
2018-06-20T12:30:22.421Z,24.79
2018-06-20T12:35:30.407Z,25.12
2018-06-20T12:40:38.443Z,24.87
2018-06-20T12:45:40.895Z,24.87
2018-06-20T12:50:43.045Z,26.14
2018-06-20T12:55:45.291Z,25.43
2018-06-20T13:00:47.436Z,25.22
2018-06-20T13:05:49.619Z,26.60
2018-06-20T13:10:51.831Z,26.79
2018-06-20T13:15:53.971Z,26.33
2018-06-20T13:20:56.145Z,26.69
2018-06-20T13:25:58.330Z,28.18
2018-06-20T13:31:06.131Z,28.50
2018-06-20T13:36:14.064Z,29.26
2018-06-20T13:41:22.090Z,28.37
2018-06-20T13:46:30.010Z,27.65
2018-06-20T13:51:32.156Z,28.25
2018-06-20T13:56:34.376Z,27.90
2018-06-20T14:01:36.517Z,28.32
2018-06-20T14:06:38.670Z,28.05
2018-06-20T14:11:41.384Z,27.48
2018-06-20T14:16:43.623Z,27.19
2018-06-20T14:21:48.703Z,26.46
2018-06-20T14:26:53.561Z,26.56
2018-06-20T14:32:06.368Z,27.45
2018-06-20T14:37:26.026Z,28.12
2018-06-20T14:42:38.968Z,27.01
2018-06-20T14:47:41.151Z,26.96
2018-06-20T14:52:43.320Z,26.86
2018-06-20T14:57:45.479Z,26.58
2018-06-20T15:02:47.648Z,27.18
2018-06-20T15:07:50.665Z,27.85
2018-06-20T15:12:53.348Z,27.90
2018-06-20T15:17:55.513Z,27.00
2018-06-20T15:22:57.689Z,27.42
2018-06-20T15:28:05.603Z,27.68
2018-06-20T15:33:13.556Z,27.44
2018-06-20T15:38:17.521Z,27.60
2018-06-20T15:43:19.691Z,27.50
2018-06-20T15:48:21.881Z,27.05
2018-06-20T15:53:24.049Z,27.41
2018-06-20T15:58:26.257Z,27.98
2018-06-20T16:03:28.471Z,28.32
2018-06-20T16:08:30.636Z,28.42
2018-06-20T16:13:32.796Z,28.32
2018-06-20T16:18:34.986Z,28.26
2018-06-20T16:23:42.981Z,27.94
2018-06-20T16:28:50.917Z,27.71
2018-06-20T16:33:53.226Z,27.63
2018-06-20T16:38:55.384Z,27.46
2018-06-20T16:43:57.559Z,27.35
2018-06-20T16:48:59.906Z,26.62
2018-06-20T16:54:02.982Z,26.34
2018-06-20T16:59:05.225Z,26.56
2018-06-20T17:04:07.456Z,26.40
2018-06-20T17:09:10.235Z,26.09
2018-06-20T17:14:18.107Z,25.87
2018-06-20T17:19:26.088Z,25.87
2018-06-20T17:24:33.892Z,25.79
2018-06-20T17:29:36.108Z,25.50
2018-06-20T17:34:39.052Z,24.97
2018-06-20T17:39:41.228Z,24.39
2018-06-20T17:44:43.760Z,24.11
2018-06-20T17:49:46.570Z,23.95
2018-06-20T17:54:48.957Z,23.71
2018-06-20T17:59:51.182Z,23.50
2018-06-20T18:04:59.216Z,23.23
2018-06-20T18:10:07.141Z,23.26
2018-06-20T18:15:15.084Z,23.16
2018-06-20T18:20:17.268Z,23.15
2018-06-20T18:25:19.552Z,23.23
2018-06-20T18:30:21.842Z,22.83
2018-06-20T18:35:24.064Z,22.84
2018-06-20T18:40:26.332Z,22.74
2018-06-20T18:45:28.515Z,22.60
2018-06-20T18:50:30.735Z,22.54
2018-06-20T18:55:32.950Z,22.41
2018-06-20T19:00:40.938Z,22.48
2018-06-20T19:05:48.906Z,22.44
2018-06-20T19:10:51.167Z,22.23
2018-06-20T19:15:53.375Z,22.13
2018-06-20T19:20:55.652Z,22.13
2018-06-20T19:25:57.957Z,22.04
2018-06-20T19:31:00.131Z,21.97
2018-06-20T19:36:02.574Z,21.90
2018-06-20T19:41:04.789Z,21.86
2018-06-20T19:46:07.275Z,21.81
2018-06-20T19:51:09.462Z,21.81
2018-06-20T19:56:11.661Z,21.60
2018-06-20T20:01:13.904Z,21.46
2018-06-20T20:06:16.120Z,21.53
2018-06-20T20:11:18.301Z,21.40
2018-06-20T20:16:20.492Z,21.35
2018-06-20T20:21:22.677Z,21.45
2018-06-20T20:26:24.900Z,21.37
2018-06-20T20:31:27.098Z,21.48
2018-06-20T20:36:29.283Z,21.63
2018-06-20T20:41:31.504Z,21.70
2018-06-20T20:46:33.705Z,21.53
2018-06-20T20:51:35.893Z,21.35
2018-06-20T20:56:38.056Z,21.20
2018-06-20T21:01:40.271Z,21.06
2018-06-20T21:06:42.466Z,20.95
2018-06-20T21:11:45.299Z,20.77
2018-06-20T21:16:47.491Z,20.62
2018-06-20T21:21:49.695Z,20.61
2018-06-20T21:26:51.993Z,20.69
2018-06-20T21:31:54.145Z,20.67
2018-06-20T21:36:56.343Z,20.60
2018-06-20T21:41:58.483Z,20.63
2018-06-20T21:47:00.647Z,20.69
2018-06-20T21:52:02.852Z,20.72
2018-06-20T21:57:05.071Z,20.77
2018-06-20T22:02:07.310Z,20.81
2018-06-20T22:07:09.488Z,20.68
2018-06-20T22:12:11.657Z,20.34
2018-06-20T22:17:13.803Z,20.07
2018-06-20T22:22:15.947Z,20.04
2018-06-20T22:27:18.096Z,20.02
2018-06-20T22:32:20.229Z,19.80
2018-06-20T22:37:22.630Z,19.76
2018-06-20T22:42:24.803Z,19.78
2018-06-20T22:47:27.310Z,19.82
2018-06-20T22:52:29.439Z,19.75
2018-06-20T22:57:31.882Z,19.80
2018-06-20T23:02:34.360Z,19.82
2018-06-20T23:07:36.560Z,19.74
2018-06-20T23:12:38.728Z,19.57
2018-06-20T23:17:40.861Z,19.67
2018-06-20T23:22:42.973Z,19.64
2018-06-20T23:27:45.095Z,19.70
2018-06-20T23:32:47.240Z,19.67
2018-06-20T23:37:49.393Z,19.64
2018-06-20T23:42:51.538Z,19.58
2018-06-20T23:47:53.690Z,19.49
2018-06-20T23:52:55.824Z,19.34
2018-06-20T23:57:57.987Z,19.44
